Погода Могокна неделю

Мандалай, Мьянма

24 февраля-01 марта
  • 24февраля
    Сегодня
    +11°
    +27°
    Практически безоблачно
    ВремяПогодаТемператураВлажностьДавлениеВетер, м/сВероятность осадков
    00:30Ясно и безоблачно+19°C71 %673 мм1.8 м/с2 %
    03:30Ясно и безоблачно+17°C90 %671 мм1.1 м/с2 %
    06:30Ясно и безоблачно+12°C72 %671 мм0.3 м/с2 %
    09:30Ясно и безоблачно+19°C52 %674 мм1.0 м/с2 %
    12:30Практически безоблачно+24°C41 %675 мм2.6 м/с3 %
    15:30Практически безоблачно+26°C41 %674 мм2.2 м/с2 %
    18:30Ясно и безоблачно+22°C63 %674 мм2.0 м/с2 %
    21:30Ясно и безоблачно+18°C60 %674 мм1.8 м/с2 %
  • 25февраля
    Воскресенье
    +11°
    +27°
    Ясно и безоблачно
    ВремяПогодаТемператураВлажностьДавлениеВетер, м/сВероятность осадков
    00:30Ясно и безоблачно+18°C56 %673 мм1.7 м/с2 %
    03:30Ясно и безоблачно+18°C52 %672 мм1.4 м/с2 %
    06:30Ясно и безоблачно+12°C53 %671 мм1.4 м/с2 %
    09:30Ясно и безоблачно+18°C39 %674 мм1.0 м/с2 %
    12:30Ясно и безоблачно+26°C35 %674 мм3.1 м/с2 %
    15:30Ясно и безоблачно+27°C38 %673 мм3.4 м/с2 %
    18:30Ясно и безоблачно+23°C54 %673 мм1.6 м/с2 %
    21:30Ясно и безоблачно+17°C69 %673 мм0.9 м/с2 %
  • 26февраля
    Понедельник
    +11°
    +28°
    Ясно и безоблачно
    ВремяПогодаТемператураВлажностьДавлениеВетер, м/сВероятность осадков
    00:30Ясно и безоблачно+18°C64 %673 мм1.0 м/с2 %
    03:30Ясно и безоблачно+19°C61 %673 мм0.8 м/с2 %
    06:30Ясно и безоблачно+12°C64 %671 мм0.9 м/с2 %
    09:30Ясно и безоблачно+19°C45 %674 мм0.7 м/с2 %
    12:30Ясно и безоблачно+27°C37 %675 мм2.6 м/с2 %
    15:30Ясно и безоблачно+28°C38 %674 мм2.0 м/с2 %
    18:30Ясно и безоблачно+23°C60 %673 мм1.4 м/с2 %
    21:30Ясно и безоблачно+19°C61 %673 мм1.4 м/с2 %
  • 27февраля
    Вторник
    +13°
    +28°
    Ясно и безоблачно
    ВремяПогодаТемператураВлажностьДавлениеВетер, м/сВероятность осадков
    00:30Ясно и безоблачно+18°C61 %672 мм1.2 м/с2 %
    03:30Ясно и безоблачно+19°C57 %672 мм1.5 м/с2 %
    06:30Ясно и безоблачно+12°C62 %671 мм1.3 м/с2 %
    09:30Ясно и безоблачно+19°C41 %673 мм0.8 м/с2 %
    12:30Ясно и безоблачно+27°C31 %674 мм2.6 м/с2 %
    15:30Облачно с прояснениями+28°C31 %672 мм2.5 м/с2 %
    18:30Ясно и безоблачно+24°C47 %672 мм0.8 м/с2 %
    21:30Ясно и безоблачно+18°C60 %671 мм0.9 м/с2 %
  • 28февраля
    Среда
    +12°
    +28°
    Ясно и безоблачно
    ВремяПогодаТемператураВлажностьДавлениеВетер, м/сВероятность осадков
    00:30Ясно и безоблачно+19°C48 %671 мм0.6 м/с2 %
    03:30Небольшая облачность+21°C43 %670 мм0.8 м/с2 %
    06:30Практически безоблачно+14°C42 %669 мм0.9 м/с2 %
    09:30Ясно и безоблачно+19°C35 %672 мм1.0 м/с2 %
    12:30Ясно и безоблачно+26°C31 %672 мм3.3 м/с2 %
    15:30Облачно с прояснениями+28°C29 %671 мм3.4 м/с3 %
    18:30Практически безоблачно+24°C45 %671 мм1.1 м/с2 %
    21:30Ясно и безоблачно+18°C48 %671 мм1.3 м/с2 %
Мы используем cookies
Соглашаюсь